West Saint Paul, Minnesota
Current Conditions -  °F | °C
As of 8:53 AM on Monday 22 Dec 2014 (Local Time) from KSTP Reporting Station
Haze Haze  
Wind Chill: 26°   Ceiling: 700
Heat Index: 36°   Visibility: 2.5mi
Dew Point: 35°   Wind: 16mph
Humidity: 97%   Direction: 140°SE
Pressure: 29.68"   Gusts: 23mph
Location:  44.8976°N, 93.103°W
Report Text: KSTP 221453Z 14014G20KT 2 1/2SM BR OVC007 02/02 A2968 RMK AO2 RAB32E49UPB49E51 SLP054 P0000 60001 T00220017 58003
Loading
Personal Weather Stations






























Interactive Weather Map New forecast layout! Learn more

10-Day Weather Forecast

Advertisements
Track Severe Weather on mobile